sensor_id;sensor_type;location;lat;lon;timestamp;pressure;altitude;pressure_sealevel;temperature;humidity
71057;BME280;58380;48.312;9.246;2023-03-20T00:01:19;93792.69;;;3.39;100.00
71057;BME280;58380;48.312;9.246;2023-03-20T00:03:46;93784.47;;;3.36;100.00
71057;BME280;58380;48.312;9.246;2023-03-20T00:06:16;93786.56;;;3.27;100.00
71057;BME280;58380;48.312;9.246;2023-03-20T00:08:47;93795.22;;;3.14;100.00
71057;BME280;58380;48.312;9.246;2023-03-20T00:11:27;93794.47;;;3.07;100.00
71057;BME280;58380;48.312;9.246;2023-03-20T00:14:08;93780.44;;;3.01;100.00
71057;BME280;58380;48.312;9.246;2023-03-20T00:16:42;93793.44;;;3.08;100.00
71057;BME280;58380;48.312;9.246;2023-03-20T00:19:16;93781.59;;;3.12;100.00
71057;BME280;58380;48.312;9.246;2023-03-20T00:21:51;93779.88;;;2.93;100.00
71057;BME280;58380;48.312;9.246;2023-03-20T00:24:19;93783.09;;;2.88;100.00
71057;BME280;58380;48.312;9.246;2023-03-20T00:26:45;93790.31;;;2.93;100.00
71057;BME280;58380;48.312;9.246;2023-03-20T00:29:23;93783.69;;;2.90;100.00
71057;BME280;58380;48.312;9.246;2023-03-20T00:31:53;93784.69;;;2.89;100.00
71057;BME280;58380;48.312;9.246;2023-03-20T00:34:21;93797.88;;;3.01;100.00
71057;BME280;58380;48.312;9.246;2023-03-20T00:36:48;93802.88;;;3.09;100.00
71057;BME280;58380;48.312;9.246;2023-03-20T00:39:15;93779.63;;;3.01;100.00
71057;BME280;58380;48.312;9.246;2023-03-20T00:41:43;93790.25;;;2.99;100.00
71057;BME280;58380;48.312;9.246;2023-03-20T00:44:36;93792.88;;;2.99;100.00
71057;BME280;58380;48.312;9.246;2023-03-20T00:47:25;93792.66;;;3.01;100.00
71057;BME280;58380;48.312;9.246;2023-03-20T00:49:52;93779.66;;;2.94;100.00
71057;BME280;58380;48.312;9.246;2023-03-20T00:52:19;93788.44;;;3.07;100.00
71057;BME280;58380;48.312;9.246;2023-03-20T00:54:46;93762.00;;;2.96;100.00
71057;BME280;58380;48.312;9.246;2023-03-20T00:57:22;93784.25;;;2.99;100.00
71057;BME280;58380;48.312;9.246;2023-03-20T00:59:54;93762.25;;;2.88;100.00
71057;BME280;58380;48.312;9.246;2023-03-20T01:02:27;93787.47;;;2.94;100.00
71057;BME280;58380;48.312;9.246;2023-03-20T01:04:55;93786.13;;;2.85;100.00
71057;BME280;58380;48.312;9.246;2023-03-20T01:07:21;93785.34;;;2.78;100.00
71057;BME280;58380;48.312;9.246;2023-03-20T01:09:47;93783.34;;;2.67;100.00
71057;BME280;58380;48.312;9.246;2023-03-20T01:12:13;93804.00;;;2.75;100.00
71057;BME280;58380;48.312;9.246;2023-03-20T01:14:41;93796.81;;;2.64;100.00
71057;BME280;58380;48.312;9.246;2023-03-20T01:17:17;93771.38;;;2.52;100.00
71057;BME280;58380;48.312;9.246;2023-03-20T01:19:45;93809.78;;;2.84;100.00
71057;BME280;58380;48.312;9.246;2023-03-20T01:22:11;93777.78;;;2.56;100.00
71057;BME280;58380;48.312;9.246;2023-03-20T01:24:38;93770.97;;;2.62;100.00
71057;BME280;58380;48.312;9.246;2023-03-20T01:27:08;93806.16;;;2.91;100.00
71057;BME280;58380;48.312;9.246;2023-03-20T01:29:38;93818.19;;;2.92;100.00
71057;BME280;58380;48.312;9.246;2023-03-20T01:32:08;93815.59;;;2.92;100.00
71057;BME280;58380;48.312;9.246;2023-03-20T01:34:36;93777.34;;;2.59;100.00
71057;BME280;58380;48.312;9.246;2023-03-20T01:37:02;93805.34;;;2.84;100.00
71057;BME280;58380;48.312;9.246;2023-03-20T01:39:30;93813.34;;;2.96;100.00
71057;BME280;58380;48.312;9.246;2023-03-20T01:41:58;93807.53;;;3.00;100.00
71057;BME280;58380;48.312;9.246;2023-03-20T01:44:29;93804.31;;;3.05;100.00
71057;BME280;58380;48.312;9.246;2023-03-20T01:46:56;93810.50;;;3.11;100.00
71057;BME280;58380;48.312;9.246;2023-03-20T01:51:49;93806.50;;;3.01;100.00
71057;BME280;58380;48.312;9.246;2023-03-20T01:54:25;93799.91;;;2.99;100.00
71057;BME280;58380;48.312;9.246;2023-03-20T01:57:04;93812.13;;;3.05;100.00
71057;BME280;58380;48.312;9.246;2023-03-20T01:59:37;93787.53;;;2.88;100.00
71057;BME280;58380;48.312;9.246;2023-03-20T02:02:13;93815.09;;;3.15;100.00
71057;BME280;58380;48.312;9.246;2023-03-20T02:04:45;93801.66;;;3.12;100.00
71057;BME280;58380;48.312;9.246;2023-03-20T02:07:17;93804.66;;;3.15;100.00
71057;BME280;58380;48.312;9.246;2023-03-20T02:09:46;93796.06;;;3.01;100.00
71057;BME280;58380;48.312;9.246;2023-03-20T02:12:14;93799.47;;;3.09;100.00
71057;BME280;58380;48.312;9.246;2023-03-20T02:14:40;93786.06;;;2.98;100.00
71057;BME280;58380;48.312;9.246;2023-03-20T02:17:08;93811.91;;;3.07;100.00
71057;BME280;58380;48.312;9.246;2023-03-20T02:19:46;93799.69;;;3.00;100.00
71057;BME280;58380;48.312;9.246;2023-03-20T02:25:43;93825.34;;;3.03;100.00
71057;BME280;58380;48.312;9.246;2023-03-20T02:43:47;93818.66;;;2.56;100.00
71057;BME280;58380;48.312;9.246;2023-03-20T02:46:57;93833.06;;;2.72;100.00
71057;BME280;58380;48.312;9.246;2023-03-20T02:52:42;93801.41;;;2.62;100.00
71057;BME280;58380;48.312;9.246;2023-03-20T03:00:45;93820.63;;;2.74;100.00
71057;BME280;58380;48.312;9.246;2023-03-20T03:03:35;93831.00;;;2.94;100.00
71057;BME280;58380;48.312;9.246;2023-03-20T03:06:28;93815.59;;;2.92;100.00
71057;BME280;58380;48.312;9.246;2023-03-20T03:09:38;93816.94;;;3.01;100.00
71057;BME280;58380;48.312;9.246;2023-03-20T03:12:17;93822.94;;;3.09;100.00
71057;BME280;58380;48.312;9.246;2023-03-20T03:14:51;93838.94;;;3.19;100.00
71057;BME280;58380;48.312;9.246;2023-03-20T03:17:23;93830.50;;;3.23;100.00
71057;BME280;58380;48.312;9.246;2023-03-20T03:19:56;93818.88;;;3.19;100.00
71057;BME280;58380;48.312;9.246;2023-03-20T03:22:25;93821.88;;;3.23;100.00
71057;BME280;58380;48.312;9.246;2023-03-20T03:24:53;93841.69;;;3.37;100.00
71057;BME280;58380;48.312;9.246;2023-03-20T03:27:26;93831.44;;;3.36;100.00
71057;BME280;58380;48.312;9.246;2023-03-20T03:30:00;93804.25;;;3.18;100.00
71057;BME280;58380;48.312;9.246;2023-03-20T03:32:41;93822.84;;;3.29;100.00
71057;BME280;58380;48.312;9.246;2023-03-20T03:35:17;93793.66;;;3.07;100.00
71057;BME280;58380;48.312;9.246;2023-03-20T03:38:01;93839.28;;;3.29;100.00
71057;BME280;58380;48.312;9.246;2023-03-20T03:41:20;93843.28;;;3.32;100.00
71057;BME280;58380;48.312;9.246;2023-03-20T03:44:07;93848.31;;;3.33;100.00
71057;BME280;58380;48.312;9.246;2023-03-20T03:46:52;93851.72;;;3.34;100.00
71057;BME280;58380;48.312;9.246;2023-03-20T03:49:26;93819.09;;;3.18;100.00
71057;BME280;58380;48.312;9.246;2023-03-20T03:52:00;93843.53;;;3.23;100.00
71057;BME280;58380;48.312;9.246;2023-03-20T03:54:36;93824.56;;;3.10;100.00
71057;BME280;58380;48.312;9.246;2023-03-20T03:57:07;93819.09;;;3.11;100.00
71057;BME280;58380;48.312;9.246;2023-03-20T03:59:40;93788.31;;;2.88;100.00
71057;BME280;58380;48.312;9.246;2023-03-20T04:02:10;93838.16;;;3.12;100.00
71057;BME280;58380;48.312;9.246;2023-03-20T04:04:41;93840.34;;;3.21;100.00
71057;BME280;58380;48.312;9.246;2023-03-20T04:07:10;93848.94;;;3.22;100.00
71057;BME280;58380;48.312;9.246;2023-03-20T04:09:37;93838.97;;;3.12;100.00
71057;BME280;58380;48.312;9.246;2023-03-20T04:12:02;93859.19;;;3.23;100.00
71057;BME280;58380;48.312;9.246;2023-03-20T04:14:28;93762.31;;;2.62;100.00
71057;BME280;58380;48.312;9.246;2023-03-20T04:16:53;93847.00;;;3.17;100.00
71057;BME280;58380;48.312;9.246;2023-03-20T04:19:19;93845.22;;;3.05;100.00
71057;BME280;58380;48.312;9.246;2023-03-20T04:21:44;93796.56;;;2.78;100.00
71057;BME280;58380;48.312;9.246;2023-03-20T04:24:10;93853.81;;;3.12;100.00
71057;BME280;58380;48.312;9.246;2023-03-20T04:26:36;93855.84;;;3.10;100.00
71057;BME280;58380;48.312;9.246;2023-03-20T04:29:04;93852.84;;;3.06;100.00
71057;BME280;58380;48.312;9.246;2023-03-20T04:31:29;93867.25;;;3.09;100.00
71057;BME280;58380;48.312;9.246;2023-03-20T04:33:55;93841.25;;;2.95;100.00
71057;BME280;58380;48.312;9.246;2023-03-20T04:36:20;93858.66;;;3.01;100.00
71057;BME280;58380;48.312;9.246;2023-03-20T04:38:46;93867.69;;;3.06;100.00
71057;BME280;58380;48.312;9.246;2023-03-20T04:41:11;93855.69;;;2.98;100.00
71057;BME280;58380;48.312;9.246;2023-03-20T04:43:37;93846.44;;;2.95;100.00
71057;BME280;58380;48.312;9.246;2023-03-20T04:46:04;93829.06;;;2.69;100.00
71057;BME280;58380;48.312;9.246;2023-03-20T04:48:30;93835.47;;;2.80;100.00
71057;BME280;58380;48.312;9.246;2023-03-20T04:50:55;93856.72;;;2.84;100.00
71057;BME280;58380;48.312;9.246;2023-03-20T04:53:21;93861.50;;;2.93;100.00
71057;BME280;58380;48.312;9.246;2023-03-20T04:55:47;93854.69;;;2.92;100.00
71057;BME280;58380;48.312;9.246;2023-03-20T04:58:13;93828.63;;;2.86;100.00
71057;BME280;58380;48.312;9.246;2023-03-20T05:00:39;93836.81;;;2.96;100.00
71057;BME280;58380;48.312;9.246;2023-03-20T05:03:04;93848.81;;;3.10;100.00
71057;BME280;58380;48.312;9.246;2023-03-20T05:05:30;93813.78;;;2.93;100.00
71057;BME280;58380;48.312;9.246;2023-03-20T05:07:55;93854.81;;;3.17;100.00
71057;BME280;58380;48.312;9.246;2023-03-20T05:10:21;93846.16;;;3.17;100.00
71057;BME280;58380;48.312;9.246;2023-03-20T05:12:47;93859.78;;;3.26;100.00
71057;BME280;58380;48.312;9.246;2023-03-20T05:15:12;93845.19;;;3.11;100.00
71057;BME280;58380;48.312;9.246;2023-03-20T05:17:38;93843.16;;;3.20;100.00
71057;BME280;58380;48.312;9.246;2023-03-20T05:20:04;93844.16;;;3.19;100.00
71057;BME280;58380;48.312;9.246;2023-03-20T05:22:30;93847.53;;;3.26;100.00
71057;BME280;58380;48.312;9.246;2023-03-20T05:24:56;93874.41;;;3.33;100.00
71057;BME280;58380;48.312;9.246;2023-03-20T05:27:21;93823.94;;;3.08;100.00
71057;BME280;58380;48.312;9.246;2023-03-20T05:29:46;93882.22;;;3.40;100.00
71057;BME280;58380;48.312;9.246;2023-03-20T05:32:12;93885.81;;;3.45;100.00
71057;BME280;58380;48.312;9.246;2023-03-20T05:34:37;93860.56;;;3.33;100.00
71057;BME280;58380;48.312;9.246;2023-03-20T05:37:03;93884.16;;;3.51;100.00
71057;BME280;58380;48.312;9.246;2023-03-20T05:39:28;93878.16;;;3.44;100.00
71057;BME280;58380;48.312;9.246;2023-03-20T05:41:54;93895.03;;;3.48;100.00
71057;BME280;58380;48.312;9.246;2023-03-20T05:44:19;93856.94;;;3.34;100.00
71057;BME280;58380;48.312;9.246;2023-03-20T05:46:45;93898.38;;;3.62;100.00
71057;BME280;58380;48.312;9.246;2023-03-20T05:49:10;93875.34;;;3.52;100.00
71057;BME280;58380;48.312;9.246;2023-03-20T05:51:36;93870.34;;;3.44;100.00
71057;BME280;58380;48.312;9.246;2023-03-20T05:54:01;93899.19;;;3.62;100.00
71057;BME280;58380;48.312;9.246;2023-03-20T05:56:26;93846.72;;;3.32;100.00
71057;BME280;58380;48.312;9.246;2023-03-20T05:58:52;93869.09;;;3.53;100.00
71057;BME280;58380;48.312;9.246;2023-03-20T06:01:17;93799.47;;;3.09;100.00
71057;BME280;58380;48.312;9.246;2023-03-20T06:03:49;93857.66;;;3.54;100.00
71057;BME280;58380;48.312;9.246;2023-03-20T06:06:15;93875.69;;;3.62;100.00
71057;BME280;58380;48.312;9.246;2023-03-20T06:08:42;93887.47;;;3.72;100.00
71057;BME280;58380;48.312;9.246;2023-03-20T06:11:07;93893.28;;;3.74;100.00
71057;BME280;58380;48.312;9.246;2023-03-20T06:13:33;93807.59;;;3.32;100.00
71057;BME280;58380;48.312;9.246;2023-03-20T06:15:59;93884.06;;;3.78;100.00
71057;BME280;58380;48.312;9.246;2023-03-20T06:18:25;93886.81;;;3.89;100.00
71057;BME280;58380;48.312;9.246;2023-03-20T06:20:52;93896.56;;;4.01;100.00
71057;BME280;58380;48.312;9.246;2023-03-20T06:23:21;93895.19;;;3.98;100.00
71057;BME280;58380;48.312;9.246;2023-03-20T06:25:47;93907.75;;;4.15;100.00
71057;BME280;58380;48.312;9.246;2023-03-20T06:28:12;93828.13;;;3.60;100.00
71057;BME280;58380;48.312;9.246;2023-03-20T06:30:38;93898.13;;;4.08;100.00
71057;BME280;58380;48.312;9.246;2023-03-20T06:33:06;93915.28;;;4.29;100.00
71057;BME280;58380;48.312;9.246;2023-03-20T06:35:32;93890.09;;;4.10;100.00
71057;BME280;58380;48.312;9.246;2023-03-20T06:37:58;93917.03;;;4.36;100.00
71057;BME280;58380;48.312;9.246;2023-03-20T06:40:24;93924.63;;;4.44;100.00
71057;BME280;58380;48.312;9.246;2023-03-20T06:42:51;93906.59;;;4.36;100.00
71057;BME280;58380;48.312;9.246;2023-03-20T06:45:18;93924.53;;;4.57;100.00
71057;BME280;58380;48.312;9.246;2023-03-20T06:47:44;93926.72;;;4.60;100.00
71057;BME280;58380;48.312;9.246;2023-03-20T06:50:11;93926.28;;;4.63;100.00
71057;BME280;58380;48.312;9.246;2023-03-20T06:52:36;93889.84;;;4.43;100.00
71057;BME280;58380;48.312;9.246;2023-03-20T06:55:02;93922.09;;;4.62;100.00
71057;BME280;58380;48.312;9.246;2023-03-20T06:57:27;93919.03;;;4.65;100.00
71057;BME280;58380;48.312;9.246;2023-03-20T06:59:53;93922.59;;;4.71;100.00
71057;BME280;58380;48.312;9.246;2023-03-20T07:05:41;93912.84;;;4.85;100.00
71057;BME280;58380;48.312;9.246;2023-03-20T07:08:06;93904.50;;;4.94;100.00
71057;BME280;58380;48.312;9.246;2023-03-20T07:10:33;93903.63;;;5.01;100.00
71057;BME280;58380;48.312;9.246;2023-03-20T07:12:59;93909.44;;;5.03;100.00
71057;BME280;58380;48.312;9.246;2023-03-20T07:15:25;93844.38;;;4.69;100.00
71057;BME280;58380;48.312;9.246;2023-03-20T07:17:51;93872.16;;;4.89;100.00
71057;BME280;58380;48.312;9.246;2023-03-20T07:20:18;93923.50;;;5.27;100.00
71057;BME280;58380;48.312;9.246;2023-03-20T07:22:46;93884.81;;;5.10;100.00
71057;BME280;58380;48.312;9.246;2023-03-20T07:25:12;93913.69;;;5.40;100.00
71057;BME280;58380;48.312;9.246;2023-03-20T07:27:38;93835.59;;;5.01;100.00
71057;BME280;58380;48.312;9.246;2023-03-20T07:30:04;93919.72;;;5.59;100.00
71057;BME280;58380;48.312;9.246;2023-03-20T07:32:31;93896.47;;;5.33;100.00
71057;BME280;58380;48.312;9.246;2023-03-20T07:34:56;93918.34;;;5.57;100.00
71057;BME280;58380;48.312;9.246;2023-03-20T07:37:22;93913.97;;;5.51;100.00
71057;BME280;58380;48.312;9.246;2023-03-20T07:39:48;93887.56;;;5.34;100.00
71057;BME280;58380;48.312;9.246;2023-03-20T07:42:14;93913.38;;;5.49;100.00
71057;BME280;58380;48.312;9.246;2023-03-20T07:44:40;93915.94;;;5.55;100.00
71057;BME280;58380;48.312;9.246;2023-03-20T07:47:05;93920.13;;;5.56;100.00
71057;BME280;58380;48.312;9.246;2023-03-20T07:49:31;93933.69;;;5.72;100.00
71057;BME280;58380;48.312;9.246;2023-03-20T07:51:57;93877.69;;;5.36;100.00
71057;BME280;58380;48.312;9.246;2023-03-20T07:54:23;93934.34;;;5.67;100.00
71057;BME280;58380;48.312;9.246;2023-03-20T07:56:48;93936.81;;;5.62;100.00
71057;BME280;58380;48.312;9.246;2023-03-20T07:59:15;93963.75;;;5.69;100.00
71057;BME280;58380;48.312;9.246;2023-03-20T08:01:41;93962.25;;;5.73;100.00
71057;BME280;58380;48.312;9.246;2023-03-20T08:04:07;93943.44;;;5.65;100.00
71057;BME280;58380;48.312;9.246;2023-03-20T08:06:32;93879.56;;;5.29;100.00
71057;BME280;58380;48.312;9.246;2023-03-20T08:08:58;93908.38;;;5.47;100.00
71057;BME280;58380;48.312;9.246;2023-03-20T08:11:23;93932.66;;;5.73;100.00
71057;BME280;58380;48.312;9.246;2023-03-20T08:13:48;93934.63;;;5.77;100.00
71057;BME280;58380;48.312;9.246;2023-03-20T08:16:14;93938.16;;;5.83;100.00
71057;BME280;58380;48.312;9.246;2023-03-20T08:18:40;93942.59;;;6.01;100.00
71057;BME280;58380;48.312;9.246;2023-03-20T08:21:07;93949.16;;;6.10;100.00
71057;BME280;58380;48.312;9.246;2023-03-20T08:23:32;93931.59;;;6.11;100.00
71057;BME280;58380;48.312;9.246;2023-03-20T08:25:58;93928.06;;;6.05;100.00
71057;BME280;58380;48.312;9.246;2023-03-20T08:28:23;93923.75;;;6.11;100.00
71057;BME280;58380;48.312;9.246;2023-03-20T08:30:49;93950.22;;;6.21;100.00
71057;BME280;58380;48.312;9.246;2023-03-20T08:33:15;93901.50;;;5.83;100.00
71057;BME280;58380;48.312;9.246;2023-03-20T08:35:42;93936.72;;;6.05;100.00
71057;BME280;58380;48.312;9.246;2023-03-20T08:38:10;93953.16;;;6.13;99.78
71057;BME280;58380;48.312;9.246;2023-03-20T08:40:41;93948.25;;;6.16;99.11
71057;BME280;58380;48.312;9.246;2023-03-20T08:43:07;93945.88;;;6.15;99.68
71057;BME280;58380;48.312;9.246;2023-03-20T08:45:33;93944.03;;;6.15;97.89
71057;BME280;58380;48.312;9.246;2023-03-20T08:47:58;93948.84;;;6.18;96.95
71057;BME280;58380;48.312;9.246;2023-03-20T08:50:24;93902.28;;;5.83;96.12
71057;BME280;58380;48.312;9.246;2023-03-20T08:52:49;93952.34;;;6.12;96.69
71057;BME280;58380;48.312;9.246;2023-03-20T08:55:15;93907.53;;;5.83;96.98
71057;BME280;58380;48.312;9.246;2023-03-20T08:57:41;93896.00;;;5.73;95.14
71057;BME280;58380;48.312;9.246;2023-03-20T09:00:09;93932.78;;;5.96;95.83
71057;BME280;58380;48.312;9.246;2023-03-20T09:02:37;93931.00;;;5.97;96.16
71057;BME280;58380;48.312;9.246;2023-03-20T09:05:03;93954.84;;;6.07;95.85
71057;BME280;58380;48.312;9.246;2023-03-20T09:07:29;93952.69;;;6.16;96.62
71057;BME280;58380;48.312;9.246;2023-03-20T09:09:54;93927.47;;;6.03;95.21
71057;BME280;58380;48.312;9.246;2023-03-20T09:12:20;93916.19;;;6.02;93.21
71057;BME280;58380;48.312;9.246;2023-03-20T09:14:45;93952.53;;;6.29;93.31
71057;BME280;58380;48.312;9.246;2023-03-20T09:17:10;93924.09;;;6.14;93.09
71057;BME280;58380;48.312;9.246;2023-03-20T09:19:36;93935.25;;;6.10;90.74
71057;BME280;58380;48.312;9.246;2023-03-20T09:22:08;93952.03;;;6.20;91.04
71057;BME280;58380;48.312;9.246;2023-03-20T09:24:33;93953.88;;;6.20;91.64
71057;BME280;58380;48.312;9.246;2023-03-20T09:26:59;93944.22;;;6.32;89.58
71057;BME280;58380;48.312;9.246;2023-03-20T09:29:25;93954.72;;;6.44;87.73
71057;BME280;58380;48.312;9.246;2023-03-20T09:31:52;93954.88;;;6.49;86.20
71057;BME280;58380;48.312;9.246;2023-03-20T09:34:18;93940.84;;;6.55;85.89
71057;BME280;58380;48.312;9.246;2023-03-20T09:36:44;93909.13;;;6.45;85.79
71057;BME280;58380;48.312;9.246;2023-03-20T09:39:10;93961.44;;;6.82;83.61
71057;BME280;58380;48.312;9.246;2023-03-20T09:41:35;93932.22;;;6.78;83.98
71057;BME280;58380;48.312;9.246;2023-03-20T09:44:13;93945.81;;;6.99;83.76
71057;BME280;58380;48.312;9.246;2023-03-20T09:47:12;93947.53;;;6.93;81.21
71057;BME280;58380;48.312;9.246;2023-03-20T09:52:39;93954.94;;;6.96;81.41
71057;BME280;58380;48.312;9.246;2023-03-20T09:55:16;93926.41;;;6.88;81.01
71057;BME280;58380;48.312;9.246;2023-03-20T09:57:49;93944.56;;;7.01;78.66
71057;BME280;58380;48.312;9.246;2023-03-20T10:00:21;93939.47;;;7.06;79.04
71057;BME280;58380;48.312;9.246;2023-03-20T10:02:58;93954.50;;;7.11;78.29
71057;BME280;58380;48.312;9.246;2023-03-20T10:05:36;93950.97;;;7.05;79.92
71057;BME280;58380;48.312;9.246;2023-03-20T10:08:11;93950.19;;;7.17;81.53
71057;BME280;58380;48.312;9.246;2023-03-20T10:11:09;93964.31;;;7.51;81.12
71057;BME280;58380;48.312;9.246;2023-03-20T10:14:03;93952.84;;;7.81;81.45
71057;BME280;58380;48.312;9.246;2023-03-20T10:17:10;93942.69;;;7.84;78.40
71057;BME280;58380;48.312;9.246;2023-03-20T10:22:44;93952.50;;;7.77;74.45
71057;BME280;58380;48.312;9.246;2023-03-20T10:25:53;93937.34;;;7.55;76.29
71057;BME280;58380;48.312;9.246;2023-03-20T10:28:29;93902.09;;;7.40;74.85
71057;BME280;58380;48.312;9.246;2023-03-20T10:31:25;93951.75;;;7.53;74.46
71057;BME280;58380;48.312;9.246;2023-03-20T10:34:08;93949.91;;;7.53;75.16
71057;BME280;58380;48.312;9.246;2023-03-20T10:42:37;93940.59;;;7.34;76.33
71057;BME280;58380;48.312;9.246;2023-03-20T10:48:13;93939.19;;;7.43;76.67
71057;BME280;58380;48.312;9.246;2023-03-20T10:50:46;93949.13;;;7.41;76.02
71057;BME280;58380;48.312;9.246;2023-03-20T10:53:27;93930.78;;;7.29;76.79
71057;BME280;58380;48.312;9.246;2023-03-20T10:56:01;93936.25;;;7.40;77.46
71057;BME280;58380;48.312;9.246;2023-03-20T10:58:34;93945.13;;;7.50;74.70
71057;BME280;58380;48.312;9.246;2023-03-20T11:01:04;93956.31;;;7.57;75.79
71057;BME280;58380;48.312;9.246;2023-03-20T11:03:30;93954.25;;;7.60;76.23
71057;BME280;58380;48.312;9.246;2023-03-20T11:06:22;93960.19;;;7.67;76.18
71057;BME280;58380;48.312;9.246;2023-03-20T11:09:10;93966.25;;;7.67;74.93
71057;BME280;58380;48.312;9.246;2023-03-20T11:11:45;93962.13;;;7.71;74.96
71057;BME280;58380;48.312;9.246;2023-03-20T11:14:20;93907.81;;;7.37;74.15
71057;BME280;58380;48.312;9.246;2023-03-20T11:16:50;93960.97;;;7.67;74.49
71057;BME280;58380;48.312;9.246;2023-03-20T11:19:19;93945.00;;;7.57;75.10
71057;BME280;58380;48.312;9.246;2023-03-20T11:21:49;93953.56;;;7.64;76.73
71057;BME280;58380;48.312;9.246;2023-03-20T11:27:10;93947.97;;;7.61;76.90
71057;BME280;58380;48.312;9.246;2023-03-20T11:29:40;93958.34;;;7.67;77.75
71057;BME280;58380;48.312;9.246;2023-03-20T11:37:49;93937.16;;;7.86;77.48
71057;BME280;58380;48.312;9.246;2023-03-20T11:40:32;93941.50;;;7.92;77.32
71057;BME280;58380;48.312;9.246;2023-03-20T11:45:38;93927.00;;;8.18;76.68
71057;BME280;58380;48.312;9.246;2023-03-20T11:48:16;93929.97;;;8.21;75.54
71057;BME280;58380;48.312;9.246;2023-03-20T11:50:59;93916.97;;;8.15;75.08
71057;BME280;58380;48.312;9.246;2023-03-20T11:53:35;93936.28;;;8.49;73.91
71057;BME280;58380;48.312;9.246;2023-03-20T11:56:20;93935.38;;;8.43;72.45
71057;BME280;58380;48.312;9.246;2023-03-20T11:58:57;93931.25;;;8.36;72.04
71057;BME280;58380;48.312;9.246;2023-03-20T12:01:24;93928.94;;;8.23;72.86
71057;BME280;58380;48.312;9.246;2023-03-20T12:04:00;93907.25;;;8.15;72.95
71057;BME280;58380;48.312;9.246;2023-03-20T12:06:39;93927.84;;;8.35;73.93
71057;BME280;58380;48.312;9.246;2023-03-20T12:12:11;93924.91;;;8.94;70.83
71057;BME280;58380;48.312;9.246;2023-03-20T12:17:46;93925.53;;;9.01;68.81
71057;BME280;58380;48.312;9.246;2023-03-20T12:22:59;93877.53;;;8.94;71.48
71057;BME280;58380;48.312;9.246;2023-03-20T12:25:37;93828.72;;;8.70;70.63
71057;BME280;58380;48.312;9.246;2023-03-20T12:28:38;93908.28;;;9.27;69.40
71057;BME280;58380;48.312;9.246;2023-03-20T12:31:28;93896.38;;;9.25;68.20
71057;BME280;58380;48.312;9.246;2023-03-20T12:37:43;93912.75;;;8.93;68.76
71057;BME280;58380;48.312;9.246;2023-03-20T12:40:16;93907.84;;;8.80;69.78
71057;BME280;58380;48.312;9.246;2023-03-20T12:43:03;93900.56;;;8.87;70.63
71057;BME280;58380;48.312;9.246;2023-03-20T12:45:39;93910.84;;;9.05;71.39
71057;BME280;58380;48.312;9.246;2023-03-20T13:03:06;93882.63;;;9.40;67.83
71057;BME280;58380;48.312;9.246;2023-03-20T13:14:41;93871.63;;;9.26;64.45
71057;BME280;58380;48.312;9.246;2023-03-20T13:17:30;93889.63;;;9.12;65.22
71057;BME280;58380;48.312;9.246;2023-03-20T13:26:29;93884.25;;;9.24;66.96
71057;BME280;58380;48.312;9.246;2023-03-20T13:29:19;93873.97;;;9.22;64.82
71057;BME280;58380;48.312;9.246;2023-03-20T13:38:18;93851.84;;;9.45;67.02
71057;BME280;58380;48.312;9.246;2023-03-20T13:40:59;93868.09;;;9.37;60.45
71057;BME280;58380;48.312;9.246;2023-03-20T13:43:33;93857.25;;;9.34;61.02
71057;BME280;58380;48.312;9.246;2023-03-20T13:46:33;93863.94;;;9.41;62.53
71057;BME280;58380;48.312;9.246;2023-03-20T13:49:19;93859.69;;;9.40;62.87
71057;BME280;58380;48.312;9.246;2023-03-20T13:52:20;93843.41;;;9.21;62.89
71057;BME280;58380;48.312;9.246;2023-03-20T13:55:00;93860.56;;;9.46;61.83
71057;BME280;58380;48.312;9.246;2023-03-20T13:58:06;93861.38;;;9.46;61.85
71057;BME280;58380;48.312;9.246;2023-03-20T14:01:04;93863.94;;;9.41;62.07
71057;BME280;58380;48.312;9.246;2023-03-20T14:03:43;93843.06;;;9.18;62.13
71057;BME280;58380;48.312;9.246;2023-03-20T14:08:52;93839.09;;;9.15;64.47
71057;BME280;58380;48.312;9.246;2023-03-20T14:14:09;93843.94;;;9.23;65.29
71057;BME280;58380;48.312;9.246;2023-03-20T14:16:39;93827.78;;;9.15;65.12
71057;BME280;58380;48.312;9.246;2023-03-20T14:19:07;93844.31;;;9.32;63.93
71057;BME280;58380;48.312;9.246;2023-03-20T14:21:45;93834.28;;;9.29;64.35
71057;BME280;58380;48.312;9.246;2023-03-20T14:24:14;93853.41;;;9.41;64.52
71057;BME280;58380;48.312;9.246;2023-03-20T14:26:47;93849.41;;;9.61;64.53
71057;BME280;58380;48.312;9.246;2023-03-20T14:31:40;93857.25;;;9.56;63.56
71057;BME280;58380;48.312;9.246;2023-03-20T14:34:16;93850.00;;;9.46;63.91
71057;BME280;58380;48.312;9.246;2023-03-20T14:36:59;93826.56;;;9.22;64.33
71057;BME280;58380;48.312;9.246;2023-03-20T14:42:13;93848.38;;;9.40;65.19
71057;BME280;58380;48.312;9.246;2023-03-20T14:47:47;93835.31;;;9.50;64.09
71057;BME280;58380;48.312;9.246;2023-03-20T14:50:27;93822.13;;;9.50;65.10
71057;BME280;58380;48.312;9.246;2023-03-20T14:55:30;93840.03;;;9.70;64.51
71057;BME280;58380;48.312;9.246;2023-03-20T14:58:02;93806.22;;;9.40;64.99
71057;BME280;58380;48.312;9.246;2023-03-20T15:00:34;93815.69;;;9.63;62.65
71057;BME280;58380;48.312;9.246;2023-03-20T15:03:15;93830.88;;;9.78;62.09
71057;BME280;58380;48.312;9.246;2023-03-20T15:05:42;93787.84;;;9.45;62.00
71057;BME280;58380;48.312;9.246;2023-03-20T15:08:10;93829.84;;;9.79;61.64
71057;BME280;58380;48.312;9.246;2023-03-20T15:10:47;93823.97;;;9.71;61.20
71057;BME280;58380;48.312;9.246;2023-03-20T15:13:17;93819.44;;;9.67;62.48
71057;BME280;58380;48.312;9.246;2023-03-20T15:15:57;93814.41;;;9.65;62.27
71057;BME280;58380;48.312;9.246;2023-03-20T15:18:28;93787.16;;;9.55;62.97
71057;BME280;58380;48.312;9.246;2023-03-20T15:20:55;93787.53;;;9.41;63.00
71057;BME280;58380;48.312;9.246;2023-03-20T15:23:22;93807.72;;;9.58;63.80
71057;BME280;58380;48.312;9.246;2023-03-20T15:25:50;93811.91;;;9.54;63.33
71057;BME280;58380;48.312;9.246;2023-03-20T15:28:26;93804.94;;;9.42;63.45
71057;BME280;58380;48.312;9.246;2023-03-20T15:30:55;93807.00;;;9.40;64.47
71057;BME280;58380;48.312;9.246;2023-03-20T15:33:33;93815.91;;;9.34;63.19